createdAt,value
2019-04-06T00:01:14.342Z,12.60
2019-04-06T00:03:42.758Z,14.30
2019-04-06T00:06:11.639Z,15.53
2019-04-06T00:08:39.739Z,14.80
2019-04-06T00:11:07.431Z,13.40
2019-04-06T00:13:35.795Z,14.13
2019-04-06T00:16:03.863Z,13.20
2019-04-06T00:18:31.949Z,11.80
2019-04-06T00:21:00.324Z,14.20
2019-04-06T00:23:28.310Z,14.90
2019-04-06T00:25:55.939Z,15.00
2019-04-06T00:28:24.359Z,14.80
2019-04-06T00:31:01.822Z,12.40
2019-04-06T00:33:29.983Z,13.93
2019-04-06T00:35:58.389Z,12.47
2019-04-06T00:38:26.463Z,12.53
2019-04-06T00:40:54.154Z,13.67
2019-04-06T00:43:21.820Z,12.80
2019-04-06T00:45:50.251Z,16.00
2019-04-06T00:48:18.216Z,14.60
2019-04-06T00:50:46.234Z,14.30
2019-04-06T00:53:14.929Z,12.00
2019-04-06T00:55:42.631Z,14.63
2019-04-06T00:58:10.965Z,12.03
2019-04-06T01:00:38.714Z,16.40
2019-04-06T01:03:06.023Z,13.53
2019-04-06T01:05:34.525Z,10.47
2019-04-06T01:08:03.069Z,13.60
2019-04-06T01:10:31.573Z,12.23
2019-04-06T01:12:59.870Z,14.50
2019-04-06T01:15:27.850Z,11.87
2019-04-06T01:17:56.295Z,12.07
2019-04-06T01:20:23.988Z,11.50
2019-04-06T01:22:51.640Z,17.57
2019-04-06T01:25:19.613Z,13.13
2019-04-06T01:27:48.152Z,11.43
2019-04-06T01:30:16.916Z,12.00
2019-04-06T01:32:44.984Z,15.27
2019-04-06T01:35:12.725Z,13.50
2019-04-06T01:37:41.298Z,11.47
2019-04-06T01:40:09.789Z,13.30
2019-04-06T01:42:38.185Z,13.07
2019-04-06T01:45:06.640Z,14.23
2019-04-06T01:47:34.958Z,12.87
2019-04-06T01:50:03.052Z,15.03
2019-04-06T01:52:31.378Z,12.37
2019-04-06T01:54:59.312Z,16.30
2019-04-06T01:57:27.561Z,15.30
2019-04-06T01:59:55.929Z,15.80
2019-04-06T02:02:35.207Z,15.23
2019-04-06T02:05:04.048Z,11.60
2019-04-06T02:07:32.738Z,14.00
2019-04-06T02:10:00.988Z,14.70
2019-04-06T02:12:31.183Z,13.00
2019-04-06T02:14:59.282Z,12.27
2019-04-06T02:17:27.249Z,11.80
2019-04-06T02:19:55.733Z,16.20
2019-04-06T02:22:24.006Z,13.30
2019-04-06T02:24:51.314Z,17.17
2019-04-06T02:27:18.999Z,13.03
2019-04-06T02:29:48.831Z,14.10
2019-04-06T02:32:32.628Z,13.63
2019-04-06T02:35:20.285Z,12.20
2019-04-06T02:38:19.875Z,15.33
2019-04-06T02:40:56.809Z,11.43
2019-04-06T02:43:27.070Z,12.73
2019-04-06T02:45:55.112Z,14.70
2019-04-06T02:48:22.761Z,12.53
2019-04-06T02:50:51.187Z,14.03
2019-04-06T02:53:19.942Z,14.23
2019-04-06T02:55:48.054Z,12.30
2019-04-06T02:58:16.912Z,13.47
2019-04-06T03:00:45.372Z,11.73
2019-04-06T03:03:13.861Z,12.27
2019-04-06T03:05:41.593Z,11.20
2019-04-06T03:08:10.402Z,13.23
2019-04-06T03:10:39.987Z,15.10
2019-04-06T03:13:08.991Z,13.00
2019-04-06T03:15:37.137Z,13.93
2019-04-06T03:18:05.700Z,14.23
2019-04-06T03:20:34.137Z,11.60
2019-04-06T03:23:02.144Z,14.37
2019-04-06T03:25:30.298Z,11.67
2019-04-06T03:27:58.668Z,13.90
2019-04-06T03:30:26.868Z,14.23
2019-04-06T03:32:55.041Z,15.10
2019-04-06T03:35:23.099Z,11.27
2019-04-06T03:37:50.811Z,12.27
2019-04-06T03:40:19.511Z,13.77
2019-04-06T03:42:47.931Z,14.13
2019-04-06T03:45:16.448Z,12.73
2019-04-06T03:47:44.140Z,9.07
2019-04-06T03:50:12.460Z,11.63
2019-04-06T03:52:40.478Z,14.43
2019-04-06T03:55:09.863Z,15.17
2019-04-06T03:57:40.907Z,11.90
2019-04-06T04:00:09.068Z,11.80
2019-04-06T04:02:37.341Z,10.63
2019-04-06T04:05:05.485Z,14.83
2019-04-06T04:07:34.092Z,13.00
2019-04-06T04:10:01.682Z,19.97
2019-04-06T04:12:30.745Z,15.33
2019-04-06T04:14:59.185Z,13.90
2019-04-06T04:17:27.192Z,14.07
2019-04-06T04:19:55.270Z,12.53
2019-04-06T04:22:23.652Z,14.67
2019-04-06T04:24:52.042Z,13.80
2019-04-06T04:27:28.339Z,12.73
2019-04-06T04:29:51.425Z,12.03
2019-04-06T04:32:20.121Z,12.03
2019-04-06T04:34:51.290Z,14.70
2019-04-06T04:37:19.655Z,12.97
2019-04-06T04:39:48.062Z,10.57
2019-04-06T04:42:16.793Z,11.10
2019-04-06T04:44:44.396Z,12.67
2019-04-06T04:47:12.689Z,12.23
2019-04-06T04:49:43.763Z,14.77
2019-04-06T04:52:12.211Z,13.87
2019-04-06T04:54:40.308Z,13.80
2019-04-06T04:57:11.617Z,12.30
2019-04-06T04:59:39.776Z,15.27
2019-04-06T05:02:08.375Z,13.20
2019-04-06T05:04:38.292Z,15.53
2019-04-06T05:07:06.254Z,15.77
2019-04-06T05:09:35.336Z,14.53
2019-04-06T05:12:03.003Z,14.40
2019-04-06T05:14:59.190Z,12.67
2019-04-06T05:17:27.555Z,13.30
2019-04-06T05:19:55.984Z,12.40
2019-04-06T05:22:24.389Z,14.73
2019-04-06T05:24:52.499Z,17.97
2019-04-06T05:27:21.122Z,13.80
2019-04-06T05:29:49.606Z,12.80
2019-04-06T05:32:18.321Z,12.73
2019-04-06T05:34:46.489Z,15.23
2019-04-06T05:37:14.756Z,14.60
2019-04-06T05:39:43.095Z,12.30
2019-04-06T05:42:10.807Z,10.87
2019-04-06T05:44:38.952Z,18.60
2019-04-06T05:47:06.773Z,20.30
2019-04-06T05:49:35.310Z,12.83
2019-04-06T05:52:03.839Z,15.00
2019-04-06T05:54:31.931Z,16.50
2019-04-06T05:56:59.936Z,14.93
2019-04-06T05:59:30.809Z,14.80
2019-04-06T06:01:58.651Z,14.80
2019-04-06T06:04:27.069Z,14.87
2019-04-06T06:06:57.113Z,14.17
2019-04-06T06:09:25.243Z,15.43
2019-04-06T06:11:55.537Z,14.43
2019-04-06T06:14:23.232Z,12.53
2019-04-06T06:16:52.208Z,11.30
2019-04-06T06:19:20.972Z,15.90
2019-04-06T06:21:49.680Z,14.40
2019-04-06T06:24:19.375Z,16.83
2019-04-06T06:26:47.379Z,16.43
2019-04-06T06:29:15.445Z,12.90
2019-04-06T06:31:43.729Z,16.40
2019-04-06T06:34:11.579Z,13.40
2019-04-06T06:36:39.900Z,17.37
2019-04-06T06:39:08.718Z,18.37
2019-04-06T06:41:37.131Z,17.40
2019-04-06T06:44:05.634Z,17.00
2019-04-06T06:46:33.659Z,18.20
2019-04-06T06:49:01.332Z,18.87
2019-04-06T06:51:29.227Z,17.67
2019-04-06T06:53:57.209Z,17.70
2019-04-06T06:56:25.792Z,19.33
2019-04-06T06:58:54.293Z,17.93
2019-04-06T07:01:22.852Z,22.20
2019-04-06T07:03:50.508Z,22.67
2019-04-06T07:06:18.210Z,19.30
2019-04-06T07:08:46.637Z,20.47
2019-04-06T07:11:15.054Z,19.13
2019-04-06T07:13:42.649Z,20.33
2019-04-06T07:16:10.659Z,18.10
2019-04-06T07:18:41.120Z,21.90
2019-04-06T07:21:09.564Z,18.40
2019-04-06T07:23:37.676Z,19.00
2019-04-06T07:26:05.336Z,18.23
2019-04-06T07:28:38.449Z,21.70
2019-04-06T07:31:04.300Z,20.60
2019-04-06T07:33:32.439Z,18.57
2019-04-06T07:36:00.220Z,24.03
2019-04-06T07:38:27.652Z,29.63
2019-04-06T07:40:55.454Z,23.60
2019-04-06T07:43:23.861Z,22.10
2019-04-06T07:45:52.067Z,18.60
2019-04-06T07:48:23.540Z,19.43
2019-04-06T07:50:52.532Z,25.67
2019-04-06T07:53:20.553Z,23.70
2019-04-06T07:55:48.131Z,22.03
2019-04-06T07:58:16.797Z,20.07
2019-04-06T08:00:45.087Z,20.60
2019-04-06T08:03:13.240Z,23.53
2019-04-06T08:05:41.549Z,23.40
2019-04-06T08:08:09.598Z,25.67
2019-04-06T08:10:37.659Z,17.47
2019-04-06T08:13:05.750Z,28.50
2019-04-06T08:15:33.703Z,29.37
2019-04-06T08:18:01.792Z,28.07
2019-04-06T08:20:30.421Z,31.40
2019-04-06T08:22:58.340Z,38.70
2019-04-06T08:25:28.225Z,21.23
2019-04-06T08:27:56.096Z,28.50
2019-04-06T08:30:24.169Z,25.40
2019-04-06T08:32:52.286Z,24.70
2019-04-06T08:35:26.101Z,17.53
2019-04-06T08:37:49.763Z,19.40
2019-04-06T08:40:18.219Z,18.27
2019-04-06T08:42:46.606Z,27.40
2019-04-06T08:45:14.567Z,15.47
2019-04-06T08:47:42.948Z,16.90
2019-04-06T08:50:12.152Z,18.23
2019-04-06T08:52:40.117Z,16.97
2019-04-06T08:55:08.613Z,20.90
2019-04-06T08:57:37.093Z,14.80
2019-04-06T09:00:06.347Z,22.97
2019-04-06T09:02:34.020Z,126.47
2019-04-06T09:05:02.763Z,248.57
2019-04-06T09:07:31.107Z,216.80
2019-04-06T09:09:59.582Z,235.63
2019-04-06T09:12:27.895Z,127.50
2019-04-06T09:14:57.597Z,246.67
2019-04-06T09:17:24.869Z,248.10
2019-04-06T09:19:53.636Z,197.10
2019-04-06T09:22:21.828Z,253.40
2019-04-06T09:24:50.869Z,274.93
2019-04-06T09:27:18.805Z,239.83
2019-04-06T09:29:47.533Z,284.80
2019-04-06T09:32:15.950Z,238.33
2019-04-06T09:34:44.940Z,247.07
2019-04-06T09:37:13.311Z,240.07
2019-04-06T09:39:41.891Z,281.37
2019-04-06T09:42:09.751Z,256.17
2019-04-06T09:45:06.663Z,253.17
2019-04-06T09:47:57.644Z,254.33
2019-04-06T09:50:35.654Z,246.80
2019-04-06T09:53:13.837Z,220.50
2019-04-06T09:55:57.858Z,213.60
2019-04-06T09:58:51.107Z,247.73
2019-04-06T10:01:38.000Z,253.03
2019-04-06T10:04:09.081Z,269.17
2019-04-06T10:07:02.353Z,242.07
2019-04-06T10:09:38.107Z,264.67
2019-04-06T10:12:31.784Z,226.03
2019-04-06T10:15:28.325Z,234.60
2019-04-06T10:18:11.540Z,131.30
2019-04-06T10:20:59.500Z,126.67
2019-04-06T10:23:46.515Z,31.97
2019-04-06T10:26:52.695Z,37.80
2019-04-06T10:29:49.535Z,22.43
2019-04-06T10:32:46.283Z,87.03
2019-04-06T10:35:26.932Z,207.40
2019-04-06T10:38:14.872Z,122.47
2019-04-06T10:41:09.461Z,110.13
2019-04-06T10:43:56.229Z,37.50
2019-04-06T10:46:46.458Z,30.23
2019-04-06T10:49:49.575Z,24.50
2019-04-06T10:52:33.224Z,124.50
2019-04-06T10:55:19.860Z,257.03
2019-04-06T10:58:19.786Z,230.40
2019-04-06T11:01:05.716Z,240.60
2019-04-06T11:03:47.760Z,254.50
2019-04-06T11:06:33.142Z,251.50
2019-04-06T11:09:31.369Z,369.73
2019-04-06T11:12:07.557Z,251.83
2019-04-06T11:14:50.541Z,174.50
2019-04-06T11:17:44.842Z,42.60
2019-04-06T11:20:44.107Z,39.23
2019-04-06T11:23:40.781Z,22.93
2019-04-06T11:26:27.191Z,84.27
2019-04-06T11:29:23.948Z,19.00
2019-04-06T11:32:14.033Z,18.60
2019-04-06T11:35:00.022Z,17.87
2019-04-06T11:37:56.571Z,17.90
2019-04-06T11:40:42.939Z,20.07
2019-04-06T11:43:48.734Z,18.70
2019-04-06T11:46:36.160Z,18.87
2019-04-06T11:49:26.794Z,18.50
2019-04-06T11:52:14.312Z,19.43
2019-04-06T11:54:51.501Z,20.00
2019-04-06T11:57:28.586Z,17.33
2019-04-06T12:00:31.495Z,18.30
2019-04-06T12:03:04.718Z,17.70
2019-04-06T12:05:44.850Z,18.13
2019-04-06T12:08:47.559Z,17.83
2019-04-06T12:11:42.893Z,16.33
2019-04-06T12:14:28.043Z,15.37
2019-04-06T12:17:25.317Z,17.80
2019-04-06T12:20:18.679Z,15.70
2019-04-06T12:23:00.210Z,18.50
2019-04-06T12:25:48.421Z,19.20
2019-04-06T12:28:45.422Z,18.53
2019-04-06T12:31:41.807Z,18.10
2019-04-06T12:34:19.173Z,16.90
2019-04-06T12:36:58.319Z,15.63
2019-04-06T12:39:53.012Z,16.80
2019-04-06T12:42:36.578Z,19.20
2019-04-06T12:45:41.590Z,16.90
2019-04-06T12:48:31.696Z,17.50
2019-04-06T12:51:14.188Z,15.07
2019-04-06T12:53:52.259Z,16.47
2019-04-06T12:56:42.991Z,18.20
2019-04-06T12:59:39.250Z,16.80
2019-04-06T13:02:16.414Z,17.60
2019-04-06T13:05:13.450Z,17.47
2019-04-06T13:08:00.604Z,17.63
2019-04-06T13:10:38.069Z,13.20
2019-04-06T13:13:27.766Z,13.33
2019-04-06T13:16:02.074Z,12.27
2019-04-06T13:18:37.567Z,12.10
2019-04-06T13:21:27.230Z,12.60
2019-04-06T13:24:03.702Z,13.47
2019-04-06T13:26:44.620Z,12.43
2019-04-06T13:29:31.491Z,13.57
2019-04-06T13:32:17.857Z,11.57
2019-04-06T13:34:59.644Z,10.73
2019-04-06T13:38:02.337Z,11.67
2019-04-06T13:41:01.544Z,12.20
2019-04-06T13:43:48.459Z,11.27
2019-04-06T13:46:50.614Z,10.50
2019-04-06T13:49:36.723Z,11.00
2019-04-06T13:52:13.181Z,9.90
2019-04-06T13:55:00.823Z,12.30
2019-04-06T13:57:40.093Z,11.37
2019-04-06T14:00:30.031Z,12.93
2019-04-06T14:03:24.693Z,12.30
2019-04-06T14:06:11.056Z,12.03
2019-04-06T14:08:52.252Z,11.40
2019-04-06T14:11:57.559Z,11.87
2019-04-06T14:14:35.880Z,11.10
2019-04-06T14:17:22.508Z,14.27
2019-04-06T14:20:08.381Z,11.80
2019-04-06T14:22:55.084Z,12.20
2019-04-06T14:25:44.869Z,12.60
2019-04-06T14:28:31.128Z,11.00
2019-04-06T14:31:30.955Z,10.50
2019-04-06T14:34:36.479Z,15.20
2019-04-06T14:37:29.464Z,12.17
2019-04-06T14:40:34.873Z,13.17
2019-04-06T14:43:29.074Z,12.37
2019-04-06T14:46:15.770Z,12.20
2019-04-06T14:49:14.246Z,12.20
2019-04-06T14:51:48.658Z,11.63
2019-04-06T14:54:26.251Z,12.10
2019-04-06T14:57:05.849Z,12.97
2019-04-06T14:59:54.871Z,13.10
2019-04-06T15:02:31.040Z,11.63
2019-04-06T15:05:42.941Z,12.23
2019-04-06T15:08:32.751Z,14.53
2019-04-06T15:11:21.731Z,12.17
2019-04-06T15:14:12.802Z,12.20
2019-04-06T15:17:02.112Z,12.30
2019-04-06T15:19:55.954Z,13.20
2019-04-06T15:22:48.319Z,12.20
2019-04-06T15:25:22.521Z,15.60
2019-04-06T15:28:12.406Z,12.93
2019-04-06T15:31:12.659Z,13.03
2019-04-06T15:34:00.952Z,12.27
2019-04-06T15:36:43.539Z,13.10
2019-04-06T15:39:26.698Z,13.03
2019-04-06T15:42:24.135Z,13.30
2019-04-06T15:45:08.211Z,12.60
2019-04-06T15:48:00.929Z,12.90
2019-04-06T15:51:02.888Z,13.33
2019-04-06T15:53:51.090Z,12.47
2019-04-06T15:56:33.909Z,13.53
2019-04-06T15:59:19.810Z,13.00
2019-04-06T16:02:10.945Z,13.63
2019-04-06T16:04:58.718Z,11.90
2019-04-06T16:07:45.112Z,11.90
2019-04-06T16:10:26.270Z,11.87
2019-04-06T16:13:13.685Z,13.60
2019-04-06T16:16:08.233Z,13.50
2019-04-06T16:18:59.590Z,13.77
2019-04-06T16:21:50.614Z,11.30
2019-04-06T16:24:30.611Z,11.93
2019-04-06T16:27:17.890Z,12.57
2019-04-06T16:30:04.079Z,12.60
2019-04-06T16:32:50.081Z,12.43
2019-04-06T16:35:36.838Z,12.70
2019-04-06T16:38:23.982Z,10.30
2019-04-06T16:41:24.916Z,12.27
2019-04-06T16:44:07.269Z,11.30
2019-04-06T16:46:54.936Z,10.40
2019-04-06T16:49:42.214Z,13.23
2019-04-06T16:52:28.796Z,12.13
2019-04-06T16:55:24.924Z,14.10
2019-04-06T16:58:07.671Z,10.93
2019-04-06T17:00:48.803Z,9.33
2019-04-06T17:03:37.588Z,10.03
2019-04-06T17:06:34.007Z,11.30
2019-04-06T17:09:28.002Z,9.83
2019-04-06T17:12:15.311Z,12.30
2019-04-06T17:15:08.367Z,11.50
2019-04-06T17:17:54.723Z,10.93
2019-04-06T17:20:38.992Z,12.27
2019-04-06T17:23:28.723Z,11.43
2019-04-06T17:26:33.191Z,11.57
2019-04-06T17:29:13.751Z,9.67
2019-04-06T17:31:48.229Z,11.10
2019-04-06T17:34:25.867Z,11.50
2019-04-06T17:37:22.567Z,11.93
2019-04-06T17:40:07.346Z,11.63
2019-04-06T17:42:50.483Z,11.63
2019-04-06T17:45:36.260Z,13.37
2019-04-06T17:48:14.681Z,12.60
2019-04-06T17:51:02.400Z,13.80
2019-04-06T17:53:49.559Z,13.43
2019-04-06T17:56:35.461Z,12.53
2019-04-06T17:59:22.737Z,11.33
2019-04-06T18:02:10.107Z,13.17
2019-04-06T18:04:55.840Z,11.40
2019-04-06T18:07:50.111Z,13.23
2019-04-06T18:10:28.284Z,11.57
2019-04-06T18:13:11.337Z,13.60
2019-04-06T18:15:40.484Z,13.17
2019-04-06T18:18:08.241Z,12.43
2019-04-06T18:20:37.327Z,11.60
2019-04-06T18:23:06.147Z,11.47
2019-04-06T18:25:34.908Z,10.53
2019-04-06T18:28:03.017Z,12.17
2019-04-06T18:30:32.130Z,9.93
2019-04-06T18:33:04.112Z,10.87
2019-04-06T18:35:32.065Z,10.00
2019-04-06T18:38:12.815Z,11.20
2019-04-06T18:40:41.252Z,9.43
2019-04-06T18:43:11.898Z,10.30
2019-04-06T18:45:42.034Z,10.00
2019-04-06T18:48:13.659Z,11.43
2019-04-06T18:50:42.282Z,11.03
2019-04-06T18:53:10.469Z,12.00
2019-04-06T18:55:37.916Z,11.10
2019-04-06T18:58:11.231Z,9.27
2019-04-06T19:00:37.869Z,11.60
2019-04-06T19:03:14.735Z,9.23
2019-04-06T19:05:40.813Z,9.97
2019-04-06T19:08:09.882Z,11.07
2019-04-06T19:10:39.371Z,11.93
2019-04-06T19:13:09.959Z,10.53
2019-04-06T19:15:41.127Z,10.47
2019-04-06T19:18:09.292Z,11.03
2019-04-06T19:20:39.257Z,9.50
2019-04-06T19:23:07.366Z,12.07
2019-04-06T19:25:36.546Z,10.90
2019-04-06T19:28:04.543Z,10.87
2019-04-06T19:30:32.811Z,10.30
2019-04-06T19:33:01.519Z,11.67
2019-04-06T19:35:30.694Z,11.60
2019-04-06T19:37:59.588Z,10.30
2019-04-06T19:40:27.292Z,10.10
2019-04-06T19:42:55.391Z,10.70
2019-04-06T19:45:24.270Z,12.23
2019-04-06T19:47:56.894Z,9.43
2019-04-06T19:50:25.182Z,11.93
2019-04-06T19:52:53.275Z,12.30
2019-04-06T19:55:22.940Z,12.57
2019-04-06T19:57:51.686Z,11.57
2019-04-06T20:00:19.733Z,12.00
2019-04-06T20:02:49.631Z,11.67
2019-04-06T20:05:20.692Z,11.03
2019-04-06T20:07:51.454Z,11.50
2019-04-06T20:10:19.993Z,10.93
2019-04-06T20:12:48.086Z,13.50
2019-04-06T20:15:16.467Z,12.23
2019-04-06T20:17:46.159Z,12.00
2019-04-06T20:20:18.708Z,10.87
2019-04-06T20:22:46.965Z,13.00
2019-04-06T20:25:15.020Z,12.47
2019-04-06T20:27:43.164Z,15.23
2019-04-06T20:30:12.254Z,13.80
2019-04-06T20:32:40.913Z,12.10
2019-04-06T20:35:09.416Z,11.20
2019-04-06T20:37:38.538Z,11.73
2019-04-06T20:40:08.609Z,12.07
2019-04-06T20:42:39.439Z,12.07
2019-04-06T20:45:08.387Z,10.97
2019-04-06T20:47:37.763Z,12.63
2019-04-06T20:50:07.007Z,11.33
2019-04-06T20:52:36.062Z,13.63
2019-04-06T20:55:04.828Z,14.53
2019-04-06T20:57:35.320Z,10.40
2019-04-06T21:00:04.461Z,12.13
2019-04-06T21:02:33.207Z,10.10
2019-04-06T21:05:02.192Z,12.30
2019-04-06T21:07:30.968Z,13.43
2019-04-06T21:09:59.413Z,11.77
2019-04-06T21:12:27.612Z,10.70
2019-04-06T21:14:55.837Z,10.13
2019-04-06T21:17:24.386Z,10.50
2019-04-06T21:19:52.709Z,11.53
2019-04-06T21:22:21.544Z,11.90
2019-04-06T21:24:50.458Z,12.07
2019-04-06T21:27:19.613Z,13.23
2019-04-06T21:29:47.378Z,11.53
2019-04-06T21:32:15.558Z,12.57
2019-04-06T21:34:45.818Z,10.90
2019-04-06T21:37:14.373Z,11.00
2019-04-06T21:39:48.437Z,12.50
2019-04-06T21:42:18.568Z,10.80
2019-04-06T21:44:47.880Z,12.47
2019-04-06T21:47:22.077Z,12.30
2019-04-06T21:49:52.992Z,11.90
2019-04-06T21:52:23.846Z,12.90
2019-04-06T21:54:52.398Z,15.10
2019-04-06T21:57:21.801Z,12.33
2019-04-06T21:59:49.863Z,11.10
2019-04-06T22:02:18.498Z,11.50
2019-04-06T22:04:47.851Z,11.57
2019-04-06T22:07:16.482Z,11.50
2019-04-06T22:09:46.784Z,12.67
2019-04-06T22:12:16.547Z,13.13
2019-04-06T22:14:44.180Z,12.20
2019-04-06T22:17:12.397Z,11.30
2019-04-06T22:19:41.021Z,11.33
2019-04-06T22:22:09.161Z,11.90
2019-04-06T22:24:37.126Z,12.97
2019-04-06T22:27:05.608Z,12.43
2019-04-06T22:29:34.266Z,12.07
2019-04-06T22:32:02.710Z,12.57
2019-04-06T22:34:38.842Z,13.60
2019-04-06T22:37:01.795Z,11.60
2019-04-06T22:39:30.139Z,11.87
2019-04-06T22:41:58.301Z,12.70
2019-04-06T22:44:26.728Z,12.97
2019-04-06T22:46:55.088Z,11.30
2019-04-06T22:49:23.080Z,10.57
2019-04-06T22:51:51.604Z,13.27
2019-04-06T22:54:20.852Z,11.97
2019-04-06T22:56:49.851Z,12.70
2019-04-06T22:59:18.010Z,12.10
2019-04-06T23:01:46.552Z,12.70
2019-04-06T23:04:23.136Z,15.37
2019-04-06T23:06:57.734Z,13.27
2019-04-06T23:09:25.732Z,12.80
2019-04-06T23:11:54.229Z,13.10
2019-04-06T23:14:22.457Z,14.07
2019-04-06T23:16:50.542Z,13.60
2019-04-06T23:19:19.092Z,13.97
2019-04-06T23:21:46.751Z,13.33
2019-04-06T23:24:14.732Z,11.83
2019-04-06T23:26:43.293Z,13.37
2019-04-06T23:29:12.975Z,13.50
2019-04-06T23:31:41.015Z,13.33
2019-04-06T23:34:10.041Z,12.73
2019-04-06T23:36:38.659Z,14.40
2019-04-06T23:39:08.061Z,12.90
2019-04-06T23:41:37.901Z,11.13
2019-04-06T23:44:05.229Z,13.60
2019-04-06T23:46:33.732Z,13.03
2019-04-06T23:49:02.648Z,11.77
2019-04-06T23:51:33.231Z,13.90
2019-04-06T23:54:00.817Z,10.97
2019-04-06T23:56:29.929Z,13.00
2019-04-06T23:58:58.089Z,12.67
